Time;durP1;ratioP1;P1;durP2;ratioP2;P2;SDS_P1;SDS_P2;PMS_P1;PMS_P2;Temp;Humidity;BMP_temperature;BMP_pressure;BME280_temperature;BME280_humidity;BME280_pressure;Samples;Min_cycle;Max_cycle;Signal;HPM_P1;HPM_P2
2021/07/30 00:01:05;;;;;;;;;6.50;6.50;;;;;23.71;41.22;100608.06;5058240;28;45953;-53
2021/07/30 00:03:30;;;;;;;;;7.75;7.75;;;;;23.70;40.96;100614.28;5058034;28;46010;-52
2021/07/30 00:05:55;;;;;;;;;8.75;7.75;;;;;23.69;41.63;100606.47;5058026;28;45476;-55
2021/07/30 00:08:21;;;;;;;;;7.00;5.50;;;;;23.68;41.64;100610.91;5058140;28;45357;-52
2021/07/30 00:10:47;;;;;;;;;6.50;6.50;;;;;23.67;41.65;100601.28;5058277;28;45468;-58
2021/07/30 00:13:13;;;;;;;;;6.75;6.75;;;;;23.68;41.49;100604.78;5058215;28;45431;-57
2021/07/30 00:15:39;;;;;;;;;7.00;7.00;;;;;23.66;41.44;100604.88;5057995;28;45411;-57
2021/07/30 00:18:04;;;;;;;;;9.50;6.75;;;;;23.67;41.61;100605.75;5058113;28;45396;-53
2021/07/30 00:20:30;;;;;;;;;9.75;7.00;;;;;23.65;41.63;100607.66;5058071;28;45483;-57
2021/07/30 00:22:56;;;;;;;;;10.75;7.00;;;;;23.65;41.97;100603.19;5057723;28;46347;-54
2021/07/30 00:25:21;;;;;;;;;8.25;6.50;;;;;23.63;41.75;100599.84;5057725;28;45326;-54
2021/07/30 00:27:46;;;;;;;;;8.00;6.25;;;;;23.63;41.61;100600.66;5057777;28;45238;-52
2021/07/30 00:30:12;;;;;;;;;7.25;7.00;;;;;23.61;42.06;100597.28;5058382;28;46036;-48
2021/07/30 00:32:38;;;;;;;;;9.00;8.00;;;;;23.61;42.04;100596.44;5057593;28;45257;-58
2021/07/30 00:35:04;;;;;;;;;6.50;6.50;;;;;23.61;41.78;100592.00;5057749;28;45639;-57
2021/07/30 00:37:30;;;;;;;;;8.75;6.75;;;;;23.59;41.92;100591.25;5057860;28;45578;-57
2021/07/30 00:39:55;;;;;;;;;6.25;6.25;;;;;23.59;42.06;100593.91;5057717;28;45547;-58
2021/07/30 00:42:20;;;;;;;;;6.25;5.50;;;;;23.58;42.20;100591.38;5057089;28;51470;-55
2021/07/30 00:44:46;;;;;;;;;7.00;7.00;;;;;23.57;41.88;100584.38;5057745;28;45354;-58
2021/07/30 00:47:11;;;;;;;;;7.75;7.00;;;;;23.56;41.89;100588.84;5057298;28;47856;-58
2021/07/30 00:49:37;;;;;;;;;9.00;6.00;;;;;23.56;42.29;100580.06;5057583;28;45425;-57
2021/07/30 00:52:03;;;;;;;;;5.75;5.00;;;;;23.54;42.18;100584.59;5057384;28;45937;-59
2021/07/30 00:54:28;;;;;;;;;7.75;7.25;;;;;23.55;42.38;100583.66;5057208;28;45403;-58
2021/07/30 00:56:54;;;;;;;;;7.00;7.00;;;;;23.53;42.38;100581.13;5057542;28;45464;-58
2021/07/30 00:59:22;;;;;;;;;8.75;7.00;;;;;23.53;42.39;100577.66;5057502;28;45470;-58
2021/07/30 01:01:49;;;;;;;;;8.25;7.75;;;;;23.53;42.04;100572.38;5057184;28;46351;-57
2021/07/30 01:04:15;;;;;;;;;6.25;6.25;;;;;23.53;42.30;100567.06;5057526;28;45825;-58
2021/07/30 01:06:40;;;;;;;;;6.25;5.00;;;;;23.52;42.10;100568.03;5057326;28;45367;-57
2021/07/30 01:09:07;;;;;;;;;9.00;7.25;;;;;23.51;42.39;100563.69;5057437;28;45332;-59
2021/07/30 01:11:33;;;;;;;;;9.50;7.00;;;;;23.51;42.17;100567.16;5056987;28;47473;-56
2021/07/30 01:13:58;;;;;;;;;6.50;6.50;;;;;23.52;42.36;100560.09;5056981;28;46216;-56
2021/07/30 01:16:23;;;;;;;;;8.50;8.50;;;;;23.50;42.47;100569.94;5057259;28;45831;-57
2021/07/30 01:18:49;;;;;;;;;7.00;7.00;;;;;23.50;42.21;100572.56;5057346;28;45792;-47
2021/07/30 01:21:23;;;;;;;;;10.50;7.50;;;;;23.49;42.25;100568.25;5056976;28;45368;-55
2021/07/30 01:23:49;;;;;;;;;10.00;6.50;;;;;23.47;42.67;100565.72;5057211;28;45737;-59
2021/07/30 01:26:16;;;;;;;;;9.75;9.75;;;;;23.47;42.00;100558.59;5057155;28;45399;-55
2021/07/30 01:28:42;;;;;;;;;9.25;7.00;;;;;23.46;42.59;100553.44;5057113;28;45246;-55
2021/07/30 01:31:07;;;;;;;;;6.25;6.25;;;;;23.47;42.73;100552.50;5056164;28;46217;-57
2021/07/30 01:33:33;;;;;;;;;8.25;7.75;;;;;23.45;42.57;100549.94;5056699;28;45234;-57
2021/07/30 01:35:58;;;;;;;;;6.25;6.25;;;;;23.44;42.77;100540.31;5056845;28;45615;-58
2021/07/30 01:38:23;;;;;;;;;11.00;8.00;;;;;23.45;42.70;100546.47;5056870;28;45313;-59
2021/07/30 01:40:49;;;;;;;;;6.75;6.75;;;;;23.44;42.67;100542.94;5056792;28;45271;-58
2021/07/30 01:43:14;;;;;;;;;7.25;7.25;;;;;23.43;42.66;100540.44;5056541;28;45331;-58
2021/07/30 01:45:39;;;;;;;;;8.00;6.00;;;;;23.42;42.88;100536.09;5056514;28;45338;-57
2021/07/30 01:48:05;;;;;;;;;7.00;6.50;;;;;23.42;42.53;100539.59;5056991;28;45300;-54
2021/07/30 01:50:30;;;;;;;;;6.00;6.00;;;;;23.41;42.92;100531.75;5056440;28;46312;-58
2021/07/30 01:52:55;;;;;;;;;9.50;6.75;;;;;23.40;43.03;100536.22;5056063;28;57445;-53
2021/07/30 01:55:23;;;;;;;;;6.50;5.25;;;;;23.41;42.80;100537.91;5056551;28;45449;-49
2021/07/30 01:57:48;;;;;;;;;8.00;8.00;;;;;23.39;42.78;100534.53;5057083;28;45302;-55
2021/07/30 02:00:14;;;;;;;;;7.00;5.00;;;;;23.40;42.75;100540.66;5056038;28;50693;-55
2021/07/30 02:02:39;;;;;;;;;6.00;6.00;;;;;23.38;42.88;100539.91;5056313;28;45360;-58
2021/07/30 02:05:06;;;;;;;;;6.75;6.75;;;;;23.38;42.74;100540.75;5056470;28;45323;-53
2021/07/30 02:07:31;;;;;;;;;7.25;6.25;;;;;23.39;42.76;100536.31;5056729;28;45519;-58
2021/07/30 02:09:58;;;;;;;;;6.25;6.25;;;;;23.37;42.53;100541.72;5056150;28;45334;-57
2021/07/30 02:12:24;;;;;;;;;7.50;6.50;;;;;23.37;42.85;100536.44;5056143;28;45683;-54
2021/07/30 02:14:49;;;;;;;;;6.75;6.25;;;;;23.38;42.53;100529.31;5056635;28;45363;-58
2021/07/30 02:17:14;;;;;;;;;6.50;6.50;;;;;23.37;42.96;100530.31;5056376;28;45559;-59
2021/07/30 02:19:40;;;;;;;;;6.75;6.50;;;;;23.35;42.92;100525.13;5056069;28;46055;-59
2021/07/30 02:22:05;;;;;;;;;9.50;7.00;;;;;23.37;42.99;100527.66;5055954;28;45463;-53
2021/07/30 02:24:30;;;;;;;;;9.00;8.00;;;;;23.36;42.69;100528.63;5056246;28;45394;-59
2021/07/30 02:26:56;;;;;;;;;8.25;7.00;;;;;23.34;42.87;100519.94;5056368;28;45370;-58
2021/07/30 02:29:21;;;;;;;;;7.50;7.00;;;;;23.33;42.93;100516.44;5056238;28;46038;-47
2021/07/30 02:31:49;;;;;;;;;10.75;8.25;;;;;23.34;42.70;100519.94;5055882;28;45392;-57
2021/07/30 02:34:15;;;;;;;;;9.25;6.00;;;;;23.33;43.07;100523.53;5056207;28;45323;-56
2021/07/30 02:36:41;;;;;;;;;6.00;5.00;;;;;23.32;42.81;100512.09;5056190;28;45450;-55
2021/07/30 02:39:06;;;;;;;;;7.25;7.25;;;;;23.31;42.91;100513.09;5055823;28;46402;-57
2021/07/30 02:41:31;;;;;;;;;8.25;7.00;;;;;23.30;42.87;100514.03;5055729;28;46524;-56
2021/07/30 02:43:57;;;;;;;;;7.25;7.25;;;;;23.28;43.24;100508.84;5058193;28;45272;-57
2021/07/30 02:46:23;;;;;;;;;8.00;7.75;;;;;23.28;42.90;100514.13;5059943;28;45530;-58
2021/07/30 02:48:48;;;;;;;;;7.75;6.50;;;;;23.29;43.07;100509.69;5059269;28;46289;-56
2021/07/30 02:51:14;;;;;;;;;7.00;6.25;;;;;23.28;43.02;100510.66;5059288;28;45187;-53
2021/07/30 02:53:40;;;;;;;;;8.00;8.00;;;;;23.26;42.75;100513.38;5059253;28;45381;-56
2021/07/30 02:56:06;;;;;;;;;7.00;7.00;;;;;23.26;43.14;100501.97;5059515;28;45574;-57
2021/07/30 02:58:31;;;;;;;;;8.50;8.00;;;;;23.26;43.08;100499.34;5059112;28;46919;-57
2021/07/30 03:01:00;;;;;;;;;5.25;4.50;;;;;23.25;43.05;100502.94;5041110;28;45793;-61
2021/07/30 03:03:26;;;;;;;;;9.00;8.00;;;;;23.24;43.31;100498.59;5059270;28;45304;-53
2021/07/30 03:05:51;;;;;;;;;9.25;9.25;;;;;23.22;43.24;100496.09;5041736;28;45265;-54
2021/07/30 03:08:16;;;;;;;;;10.75;7.50;;;;;23.23;43.18;100491.63;5058863;28;46329;-49
2021/07/30 03:10:42;;;;;;;;;7.00;7.00;;;;;23.23;43.12;100496.91;5058958;28;45229;-58
2021/07/30 03:13:07;;;;;;;;;7.00;7.00;;;;;23.22;42.97;100488.16;5059148;28;45315;-59
2021/07/30 03:15:33;;;;;;;;;8.00;8.00;;;;;23.21;42.91;100488.25;5059263;28;45143;-58
2021/07/30 03:17:58;;;;;;;;;7.00;7.00;;;;;23.21;42.68;100488.25;5058930;28;45486;-55
2021/07/30 03:20:23;;;;;;;;;9.50;9.50;;;;;23.20;43.04;100487.41;5059319;28;45352;-53
2021/07/30 03:22:49;;;;;;;;;7.00;6.00;;;;;23.20;43.12;100482.13;5058942;28;45487;-58
2021/07/30 03:25:14;;;;;;;;;10.25;8.50;;;;;23.19;43.05;100477.78;5059247;28;45341;-58
2021/07/30 03:27:42;;;;;;;;;9.25;8.25;;;;;23.20;43.31;100478.66;5058802;28;45256;-55
2021/07/30 03:30:08;;;;;;;;;10.00;7.00;;;;;23.20;43.13;100479.47;5058771;28;45344;-55
2021/07/30 03:32:33;;;;;;;;;8.75;7.50;;;;;23.22;43.21;100482.88;5058812;28;45376;-61
2021/07/30 03:34:59;;;;;;;;;12.25;8.50;;;;;23.24;43.16;100482.75;5058747;28;45422;-55
2021/07/30 03:37:24;;;;;;;;;8.25;7.25;;;;;23.26;43.20;100488.75;5058867;28;45316;-58
2021/07/30 03:39:49;;;;;;;;;12.75;8.00;;;;;23.26;43.05;100480.84;5058572;28;45388;-59
2021/07/30 03:42:15;;;;;;;;;9.25;8.25;;;;;23.27;43.10;100475.41;5058646;28;45310;-59
2021/07/30 03:44:40;;;;;;;;;7.50;7.00;;;;;23.28;43.34;100481.56;5058776;28;45572;-58
2021/07/30 03:47:05;;;;;;;;;8.00;6.50;;;;;23.27;43.10;100477.25;5040349;28;48086;-58
2021/07/30 03:49:31;;;;;;;;;9.25;9.25;;;;;23.27;42.74;100487.81;5057701;28;45233;-58
2021/07/30 03:51:56;;;;;;;;;10.50;9.00;;;;;23.26;43.04;100481.66;5058817;28;45354;-47
2021/07/30 03:54:21;;;;;;;;;6.00;6.00;;;;;23.27;43.19;100487.81;5058569;28;45194;-56
2021/07/30 03:56:47;;;;;;;;;6.75;6.75;;;;;23.28;43.06;100484.22;5058358;28;45947;-53
2021/07/30 03:59:12;;;;;;;;;8.50;6.50;;;;;23.28;43.00;100478.94;5058269;28;45341;-56
2021/07/30 04:01:46;;;;;;;;;8.25;7.25;;;;;23.29;43.06;100478.81;5039903;28;45285;-58
2021/07/30 04:04:12;;;;;;;;;9.00;8.50;;;;;23.30;43.08;100479.66;5058411;28;45431;-53
2021/07/30 04:06:37;;;;;;;;;8.50;8.50;;;;;23.30;43.06;100482.31;5058014;28;45388;-57
2021/07/30 04:09:02;;;;;;;;;8.33;8.33;;;;;23.31;42.97;100479.53;5057394;28;62023;-56
2021/07/30 04:11:28;;;;;;;;;10.00;10.00;;;;;23.31;43.11;100484.00;5058182;28;45363;-55
2021/07/30 04:13:53;;;;;;;;;12.00;10.50;;;;;23.31;43.26;100476.91;5058282;28;45371;-56
2021/07/30 04:16:18;;;;;;;;;8.75;7.00;;;;;23.32;42.82;100477.72;5057879;28;46347;-56
2021/07/30 04:18:43;;;;;;;;;6.50;6.50;;;;;23.32;43.01;100480.38;5057413;28;57800;-50
2021/07/30 04:21:09;;;;;;;;;8.75;8.75;;;;;23.33;43.39;100478.59;5057939;28;45179;-53
2021/07/30 04:23:35;;;;;;;;;7.75;7.75;;;;;23.33;42.93;100481.22;5057977;28;45645;-56
2021/07/30 04:26:01;;;;;;;;;6.25;6.25;;;;;23.32;43.17;100480.38;5057796;28;45486;-58
2021/07/30 04:28:26;;;;;;;;;9.75;5.00;;;;;23.31;42.98;100476.06;5058036;28;45394;-57
2021/07/30 04:30:52;;;;;;;;;8.00;8.00;;;;;23.31;43.27;100476.91;5057898;28;45445;-55
2021/07/30 04:33:17;;;;;;;;;7.50;7.00;;;;;23.30;42.94;100477.03;5058083;28;45415;-55
2021/07/30 04:35:43;;;;;;;;;12.00;8.75;;;;;23.28;43.32;100484.22;5057638;28;45335;-58
2021/07/30 04:38:08;;;;;;;;;7.50;6.50;;;;;23.25;43.48;100485.28;5057580;28;45957;-57
2021/07/30 04:40:37;;;;;;;;;7.25;7.25;;;;;23.25;43.03;100481.78;5039743;28;45331;-51
2021/07/30 04:43:02;;;;;;;;;8.00;6.00;;;;;23.25;43.01;100489.72;5057901;28;45490;-58
2021/07/30 04:45:27;;;;;;;;;6.25;6.25;;;;;23.22;43.42;100484.66;5057594;28;47007;-56
2021/07/30 04:47:53;;;;;;;;;7.00;6.00;;;;;23.22;42.97;100485.50;5057496;28;45332;-52
2021/07/30 04:50:18;;;;;;;;;4.50;4.50;;;;;23.20;43.08;100486.56;5039691;28;45458;-56
2021/07/30 04:52:44;;;;;;;;;4.25;4.25;;;;;23.16;43.33;100484.13;5057590;28;45623;-60
2021/07/30 04:55:10;;;;;;;;;7.50;7.25;;;;;23.17;43.25;100482.31;5057363;28;46151;-54
2021/07/30 04:57:35;;;;;;;;;6.00;6.00;;;;;23.17;43.25;100484.94;5039188;28;45301;-52
2021/07/30 05:00:00;;;;;;;;;7.00;7.00;;;;;23.15;43.21;100490.34;5057304;28;45393;-53
2021/07/30 05:02:26;;;;;;;;;5.00;5.00;;;;;23.16;43.20;100484.13;5057773;28;45310;-54
2021/07/30 05:04:55;;;;;;;;;8.00;6.75;;;;;23.15;43.35;100481.59;5056955;28;46502;-57
2021/07/30 05:07:21;;;;;;;;;5.50;5.50;;;;;23.14;43.35;100479.91;5056725;28;45803;-51
2021/07/30 05:09:47;;;;;;;;;6.00;6.00;;;;;23.14;43.20;100477.25;5057330;28;45355;-59
2021/07/30 05:12:12;;;;;;;;;6.00;6.00;;;;;23.13;43.26;100470.28;5057366;28;45316;-53
2021/07/30 05:14:40;;;;;;;;;5.50;5.00;;;;;23.12;43.40;100468.59;5056916;28;45659;-59
2021/07/30 05:17:06;;;;;;;;;4.75;4.50;;;;;23.10;42.98;100471.31;5039149;28;45341;-52
2021/07/30 05:19:31;;;;;;;;;5.00;4.00;;;;;23.10;43.10;100473.13;5057132;28;45273;-47
2021/07/30 05:21:57;;;;;;;;;6.25;6.25;;;;;23.08;43.19;100478.53;5057374;28;45543;-57
2021/07/30 05:24:22;;;;;;;;;8.50;5.50;;;;;23.09;42.99;100485.53;5056875;28;46010;-57
2021/07/30 05:26:48;;;;;;;;;5.75;5.75;;;;;23.08;43.17;100472.41;5056837;28;45379;-59
2021/07/30 05:29:13;;;;;;;;;4.50;4.50;;;;;23.06;43.05;100479.59;5038776;28;45367;-51
2021/07/30 05:31:39;;;;;;;;;5.00;5.00;;;;;23.05;42.89;100477.91;5057221;28;45352;-49
2021/07/30 05:34:04;;;;;;;;;6.00;6.00;;;;;23.06;43.00;100479.59;5056449;28;51666;-56
2021/07/30 05:36:29;;;;;;;;;8.75;8.75;;;;;23.03;42.80;100478.03;5056947;28;45340;-49
2021/07/30 05:38:55;;;;;;;;;5.75;5.75;;;;;23.03;42.70;100478.03;5038728;28;45457;-57
2021/07/30 05:41:20;;;;;;;;;5.00;5.00;;;;;23.02;42.74;100471.03;5056883;28;45523;-56
2021/07/30 05:43:46;;;;;;;;;5.50;5.50;;;;;23.00;43.23;100473.81;5056385;28;46223;-55
2021/07/30 05:46:14;;;;;;;;;6.00;5.00;;;;;23.02;42.78;100473.69;5056613;28;45241;-56
2021/07/30 05:48:39;;;;;;;;;5.00;5.00;;;;;22.99;42.55;100472.13;5056677;28;45340;-55
2021/07/30 05:51:05;;;;;;;;;9.00;4.50;;;;;23.00;42.53;100470.31;5056806;28;45223;-49
2021/07/30 05:53:30;;;;;;;;;5.75;4.00;;;;;23.00;42.82;100473.81;5056801;28;45545;-53
2021/07/30 05:55:55;;;;;;;;;5.00;4.50;;;;;22.99;42.78;100476.53;5056094;28;54867;-55
2021/07/30 05:58:21;;;;;;;;;4.00;4.00;;;;;22.98;42.79;100474.88;5056650;28;45388;-56
2021/07/30 06:00:46;;;;;;;;;6.50;5.25;;;;;22.99;42.97;100472.13;5056342;28;45364;-56
2021/07/30 06:03:11;;;;;;;;;7.00;5.50;;;;;22.99;42.98;100466.81;5056253;28;46205;-48
2021/07/30 06:05:37;;;;;;;;;5.00;5.00;;;;;22.99;42.96;100468.59;5056325;28;45339;-58
2021/07/30 06:08:05;;;;;;;;;7.00;6.00;;;;;22.98;43.17;100466.94;5056305;28;51577;-54
2021/07/30 06:10:31;;;;;;;;;4.50;4.50;;;;;22.97;43.13;100452.03;5056950;28;45538;-57
2021/07/30 06:12:56;;;;;;;;;5.00;5.00;;;;;22.95;43.27;100461.88;5056234;28;45282;-54
2021/07/30 06:15:24;;;;;;;;;7.25;5.50;;;;;22.93;43.41;100464.59;5056021;28;50325;-50
2021/07/30 06:17:50;;;;;;;;;4.50;4.50;;;;;22.94;43.50;100449.63;5058681;28;45384;-50
2021/07/30 06:20:16;;;;;;;;;8.00;5.50;;;;;22.94;43.57;100445.16;5042033;28;45549;-51
2021/07/30 06:22:41;;;;;;;;;6.25;6.25;;;;;22.95;43.52;100453.94;5059617;28;46074;-58
2021/07/30 06:25:07;;;;;;;;;5.00;5.00;;;;;22.94;43.44;100445.16;5059715;28;45383;-51
2021/07/30 06:27:36;;;;;;;;;5.50;5.50;;;;;22.95;43.71;100451.31;5059994;28;45495;-55
2021/07/30 06:30:08;;;;;;;;;5.00;5.00;;;;;22.97;43.76;100455.50;5060211;28;45541;-50
2021/07/30 06:32:37;;;;;;;;;5.50;5.00;;;;;22.99;43.79;100447.47;5059791;28;47057;-53
2021/07/30 06:35:03;;;;;;;;;4.75;3.75;;;;;23.01;44.12;100449.06;5059873;28;45671;-54
2021/07/30 06:37:33;;;;;;;;;6.00;6.00;;;;;23.03;44.10;100446.31;5041670;28;45355;-54
2021/07/30 06:39:58;;;;;;;;;5.00;5.00;;;;;23.02;44.00;100444.59;5059281;28;45545;-53
2021/07/30 06:42:24;;;;;;;;;5.75;4.50;;;;;23.03;44.17;100438.38;5053864;28;45537;-50
2021/07/30 06:44:49;;;;;;;;;5.75;5.00;;;;;23.03;44.30;100443.66;5056627;28;45662;-58
2021/07/30 06:47:14;;;;;;;;;8.50;7.00;;;;;23.04;44.28;100445.34;5058902;28;45382;-59
2021/07/30 06:49:39;;;;;;;;;4.25;4.25;;;;;23.01;44.24;100435.00;5059609;28;45539;-57
2021/07/30 06:52:08;;;;;;;;;7.00;6.00;;;;;23.00;44.25;100436.81;5059160;28;46124;-60
2021/07/30 06:54:34;;;;;;;;;5.00;4.50;;;;;22.99;44.29;100440.41;5059119;28;45811;-57
2021/07/30 06:57:03;;;;;;;;;6.25;5.25;;;;;22.98;44.29;100438.72;5058968;28;45578;-54
2021/07/30 06:59:28;;;;;;;;;5.00;5.00;;;;;22.99;44.52;100436.91;5056134;28;45439;-53
2021/07/30 07:01:54;;;;;;;;;5.25;5.25;;;;;23.00;44.51;100444.72;5051935;28;45477;-49
2021/07/30 07:04:19;;;;;;;;;5.50;4.25;;;;;22.99;44.45;100436.91;5058800;28;45994;-60
2021/07/30 07:06:47;;;;;;;;;5.50;4.75;;;;;23.00;44.75;100446.50;5058815;28;45316;-60
2021/07/30 07:09:16;;;;;;;;;6.00;4.00;;;;;23.00;44.81;100438.59;5058620;28;45419;-48
2021/07/30 07:11:42;;;;;;;;;4.25;4.25;;;;;22.98;44.75;100436.06;5058282;28;45349;-58
2021/07/30 07:14:07;;;;;;;;;7.50;6.00;;;;;22.99;44.67;100455.41;5058122;28;45456;-52
2021/07/30 07:16:33;;;;;;;;;9.00;6.00;;;;;22.98;44.85;100445.81;5058754;28;45448;-50
2021/07/30 07:18:58;;;;;;;;;7.75;6.00;;;;;22.99;45.24;100439.53;5058558;28;45422;-51
2021/07/30 07:21:24;;;;;;;;;7.00;6.25;;;;;22.98;45.06;100438.72;5058038;28;46736;-48
2021/07/30 07:23:50;;;;;;;;;6.50;6.00;;;;;23.02;45.12;100436.69;5058143;28;45435;-55
2021/07/30 07:26:16;;;;;;;;;5.75;4.75;;;;;23.05;45.24;100444.41;5058042;28;45249;-50
2021/07/30 07:28:42;;;;;;;;;4.25;4.25;;;;;23.05;45.43;100441.75;5054723;28;45293;-48
2021/07/30 07:31:07;;;;;;;;;6.00;6.00;;;;;23.06;45.54;100437.28;5058123;28;46295;-46
2021/07/30 07:33:32;;;;;;;;;6.25;5.75;;;;;23.05;45.56;100436.47;5058400;28;45404;-51
2021/07/30 07:35:58;;;;;;;;;8.75;5.75;;;;;23.05;45.53;100436.47;5057516;28;45456;-52
2021/07/30 07:38:23;;;;;;;;;3.25;3.25;;;;;23.07;45.82;100439.00;5056456;28;45705;-57
2021/07/30 07:40:49;;;;;;;;;7.00;7.00;;;;;23.07;45.52;100444.28;5056024;28;45805;-50
2021/07/30 07:43:14;;;;;;;;;9.00;5.50;;;;;23.07;45.72;100442.50;5057109;28;45314;-53
2021/07/30 07:45:39;;;;;;;;;4.00;4.00;;;;;23.09;45.91;100434.44;5057988;28;45471;-56
2021/07/30 07:48:05;;;;;;;;;7.00;4.75;;;;;23.10;46.10;100441.41;5056791;28;45928;-50
2021/07/30 07:50:30;;;;;;;;;8.50;6.00;;;;;23.07;46.10;100439.84;5046389;28;46085;-46
2021/07/30 07:52:56;;;;;;;;;6.50;5.00;;;;;23.04;46.20;100437.41;5025148;28;45607;-51
2021/07/30 07:55:21;;;;;;;;;5.75;5.75;;;;;23.03;46.26;100433.09;5051521;28;45659;-50
2021/07/30 07:57:46;;;;;;;;;5.00;5.00;;;;;23.04;46.21;100423.38;5055674;28;45532;-52
2021/07/30 08:00:12;;;;;;;;;6.25;6.00;;;;;23.07;46.34;100426.63;5042070;28;46168;-48
2021/07/30 08:02:38;;;;;;;;;7.25;5.75;;;;;23.09;46.49;100423.88;5045006;28;45892;-53
2021/07/30 08:05:04;;;;;;;;;6.00;4.75;;;;;23.10;46.45;100425.56;5057072;28;45345;-53
2021/07/30 08:07:29;;;;;;;;;5.25;5.00;;;;;23.11;46.64;100420.16;5057913;28;45422;-56
2021/07/30 08:09:54;;;;;;;;;7.50;5.50;;;;;23.11;46.73;100399.00;5053738;28;45533;-57
2021/07/30 08:12:20;;;;;;;;;6.50;6.50;;;;;23.13;46.87;100409.47;5050596;28;45514;-55
2021/07/30 08:14:45;;;;;;;;;7.00;6.00;;;;;23.16;46.78;100398.66;5041422;28;47381;-51
2021/07/30 08:17:11;;;;;;;;;5.50;5.00;;;;;23.15;46.97;100397.84;5044833;28;45999;-58
2021/07/30 08:19:37;;;;;;;;;6.00;6.00;;;;;23.14;46.97;100398.78;5055150;28;45943;-57
2021/07/30 08:22:04;;;;;;;;;5.50;4.75;;;;;23.13;47.15;100410.31;5045858;28;45408;-51
2021/07/30 08:24:30;;;;;;;;;6.25;4.75;;;;;23.13;47.34;100399.75;5047009;28;45873;-48
2021/07/30 08:26:55;;;;;;;;;4.25;4.25;;;;;23.12;47.27;100400.69;5048757;28;45761;-50
2021/07/30 08:29:21;;;;;;;;;6.50;6.50;;;;;23.12;47.28;100411.25;5056414;28;46100;-52
2021/07/30 08:31:46;;;;;;;;;4.00;4.00;;;;;23.12;47.61;100398.03;5057455;28;45451;-56
2021/07/30 08:34:13;;;;;;;;;5.25;4.50;;;;;23.13;47.63;100394.44;5043031;28;45452;-55
2021/07/30 08:36:38;;;;;;;;;5.00;5.00;;;;;23.15;47.45;100416.34;5039469;28;45657;-52
2021/07/30 08:39:04;;;;;;;;;6.00;6.00;;;;;23.15;47.56;100415.50;5046475;28;45878;-55
2021/07/30 08:41:29;;;;;;;;;5.50;5.00;;;;;23.17;47.58;100417.06;5042133;28;46048;-54
2021/07/30 08:43:55;;;;;;;;;6.00;6.00;;;;;23.17;47.70;100416.22;5056924;28;45411;-58
2021/07/30 08:46:26;;;;;;;;;4.00;4.00;;;;;23.14;47.64;100411.16;5057329;28;45343;-59
2021/07/30 08:48:52;;;;;;;;;7.25;5.00;;;;;23.13;47.83;100415.59;5056615;28;46617;-58
2021/07/30 08:51:19;;;;;;;;;5.00;5.00;;;;;23.14;48.19;100414.66;5053811;28;45671;-59
2021/07/30 08:53:46;;;;;;;;;5.50;4.50;;;;;23.15;48.02;100418.97;5049833;28;45502;-57
2021/07/30 08:56:12;;;;;;;;;5.25;4.75;;;;;23.16;48.08;100407.44;5054949;28;45336;-55
2021/07/30 08:58:38;;;;;;;;;5.75;5.00;;;;;23.20;48.05;100405.44;5056547;28;46423;-58
2021/07/30 09:01:03;;;;;;;;;4.25;4.00;;;;;23.22;47.99;100400.03;5056965;28;45332;-56
2021/07/30 09:03:39;;;;;;;;;5.75;5.00;;;;;23.23;48.18;100401.72;5056763;28;45232;-58
2021/07/30 09:06:18;;;;;;;;;6.25;5.25;;;;;23.25;47.91;100391.88;5042327;28;45742;-55
2021/07/30 09:09:12;;;;;;;;;4.75;4.25;;;;;23.27;48.30;100398.75;5042548;28;45491;-53
2021/07/30 09:11:40;;;;;;;;;5.00;4.00;;;;;23.29;47.84;100401.28;5047622;28;45483;-60
2021/07/30 09:14:08;;;;;;;;;3.50;3.50;;;;;23.30;48.38;100392.41;5054564;28;45376;-54
2021/07/30 09:16:46;;;;;;;;;5.25;5.25;;;;;23.32;48.14;100395.75;5056278;28;45285;-56
2021/07/30 09:19:12;;;;;;;;;4.50;3.00;;;;;23.33;48.32;100402.72;5050841;28;46313;-59
2021/07/30 09:21:37;;;;;;;;;4.25;4.25;;;;;23.34;47.98;100398.31;5055442;28;45345;-54
2021/07/30 09:24:04;;;;;;;;;6.00;4.00;;;;;23.36;48.45;100391.09;5056370;28;45494;-52
2021/07/30 09:26:59;;;;;;;;;7.25;4.25;;;;;23.37;48.03;100393.63;5055894;28;45637;-55
2021/07/30 09:29:31;;;;;;;;;4.75;4.75;;;;;23.40;48.08;100395.19;5053873;28;46381;-54
2021/07/30 09:32:02;;;;;;;;;7.75;5.75;;;;;23.42;48.03;100401.22;5056275;28;45875;-53
2021/07/30 09:34:47;;;;;;;;;5.00;3.50;;;;;23.45;48.43;100401.81;5055247;28;45459;-52
2021/07/30 09:37:17;;;;;;;;;5.00;4.00;;;;;23.45;48.25;100407.13;5038470;28;45477;-58
2021/07/30 09:39:45;;;;;;;;;5.75;5.00;;;;;23.44;48.49;100386.91;5056189;28;45324;-58
2021/07/30 09:42:19;;;;;;;;;6.00;5.00;;;;;23.46;48.62;100392.94;5053798;28;45397;-50
2021/07/30 09:44:49;;;;;;;;;4.00;4.00;;;;;23.44;48.60;100389.56;5056208;28;45458;-48
2021/07/30 09:47:21;;;;;;;;;3.00;3.00;;;;;23.46;48.43;100398.22;5051283;28;45597;-50
2021/07/30 09:49:58;;;;;;;;;4.75;4.50;;;;;23.47;48.82;100391.16;5046924;28;45557;-57
2021/07/30 09:52:26;;;;;;;;;4.25;4.25;;;;;23.49;48.73;100396.31;5053254;28;45416;-57
2021/07/30 09:54:57;;;;;;;;;5.25;5.25;;;;;23.52;48.75;100396.09;5056160;28;45442;-54
2021/07/30 09:57:30;;;;;;;;;4.25;3.00;;;;;23.52;48.85;100396.91;5056269;28;45504;-54
2021/07/30 10:00:09;;;;;;;;;3.50;3.50;;;;;23.53;48.87;100387.19;5037381;28;48021;-60
2021/07/30 10:02:37;;;;;;;;;6.50;5.00;;;;;23.54;48.57;100386.22;5056039;28;45402;-60
2021/07/30 10:05:05;;;;;;;;;3.25;3.25;;;;;23.54;48.70;100383.56;5054593;28;45329;-57
2021/07/30 10:07:32;;;;;;;;;4.75;4.00;;;;;23.56;48.89;100386.94;5045335;28;45531;-55
2021/07/30 10:10:10;;;;;;;;;4.00;4.00;;;;;23.56;48.63;100379.00;5053594;28;46622;-54
2021/07/30 10:12:39;;;;;;;;;6.00;4.50;;;;;23.56;48.96;100386.94;5055707;28;45181;-56
2021/07/30 10:15:06;;;;;;;;;4.75;4.00;;;;;23.56;48.44;100389.59;5055898;28;45370;-56
2021/07/30 10:17:36;;;;;;;;;4.00;4.00;;;;;23.58;48.25;100393.81;5055855;28;45689;-58
2021/07/30 10:20:05;;;;;;;;;5.00;5.00;;;;;23.59;48.70;100387.56;5055572;28;46287;-58
2021/07/30 10:22:55;;;;;;;;;5.00;5.00;;;;;23.61;48.22;100376.88;5055730;28;45685;-54
2021/07/30 10:25:23;;;;;;;;;3.00;3.00;;;;;23.63;48.48;100373.16;5055678;28;45242;-56
2021/07/30 10:27:50;;;;;;;;;3.50;3.50;;;;;23.65;48.14;100372.19;5055668;28;45372;-55
2021/07/30 10:30:18;;;;;;;;;3.00;2.25;;;;;23.67;48.16;100372.91;5037647;28;49048;-57
2021/07/30 10:32:58;;;;;;;;;5.00;4.00;;;;;23.70;47.97;100364.75;5055427;28;45723;-50
2021/07/30 10:35:27;;;;;;;;;5.75;3.50;;;;;23.71;47.99;100377.84;5055777;28;45299;-55
2021/07/30 10:38:11;;;;;;;;;6.50;5.00;;;;;23.72;47.63;100371.59;5055980;28;45341;-60
2021/07/30 10:40:36;;;;;;;;;2.00;2.00;;;;;23.73;47.83;100369.78;5055233;28;47437;-61
2021/07/30 10:43:05;;;;;;;;;4.00;4.00;;;;;23.75;47.37;100367.88;5055455;28;45465;-58
2021/07/30 10:45:33;;;;;;;;;5.75;4.00;;;;;23.75;47.01;100368.75;5055785;28;45752;-58
2021/07/30 10:48:13;;;;;;;;;4.25;3.25;;;;;23.77;47.28;100368.59;5055827;28;45436;-57
2021/07/30 10:50:47;;;;;;;;;3.00;3.00;;;;;23.77;47.42;100368.59;5037696;28;47003;-60
2021/07/30 10:53:33;;;;;;;;;4.25;4.00;;;;;23.77;47.53;100382.66;5055592;28;45392;-55
2021/07/30 10:56:00;;;;;;;;;3.00;2.50;;;;;23.78;47.45;100375.59;5055502;28;45383;-60
2021/07/30 10:58:56;;;;;;;;;4.00;3.00;;;;;23.81;47.34;100382.44;5055668;28;45331;-58
2021/07/30 11:01:44;;;;;;;;;3.00;3.00;;;;;23.82;47.53;100370.91;5047896;28;46533;-52
2021/07/30 11:04:10;;;;;;;;;5.25;4.75;;;;;23.84;47.13;100376.91;5056779;28;45709;-51
2021/07/30 11:06:39;;;;;;;;;6.75;4.00;;;;;23.85;47.38;100368.84;5058794;28;45340;-50
2021/07/30 11:09:07;;;;;;;;;4.75;3.00;;;;;23.87;47.08;100368.72;5058942;28;45352;-49
2021/07/30 11:12:11;;;;;;;;;2.50;2.50;;;;;23.88;47.35;100381.84;5058316;28;45455;-47
2021/07/30 11:14:40;;;;;;;;;2.50;2.50;;;;;23.90;46.74;100374.66;4976816;28;45949;-52
2021/07/30 11:17:08;;;;;;;;;4.00;4.00;;;;;23.92;46.81;100371.88;5027460;28;45412;-50
2021/07/30 11:19:35;;;;;;;;;3.00;3.00;;;;;23.92;46.66;100372.69;5058777;28;45599;-56
2021/07/30 11:22:03;;;;;;;;;3.75;3.00;;;;;23.93;46.27;100374.38;5057995;28;46956;-49
2021/07/30 11:24:29;;;;;;;;;2.50;2.50;;;;;23.94;45.74;100380.53;5058138;28;45363;-48